createdAt,value
2019-05-22T00:00:38.073Z,52.09
2019-05-22T00:01:38.041Z,52.19
2019-05-22T00:02:38.030Z,52.09
2019-05-22T00:03:38.020Z,52.09
2019-05-22T00:04:38.011Z,52.09
2019-05-22T00:05:38.017Z,52.09
2019-05-22T00:06:37.986Z,52.19
2019-05-22T00:07:37.974Z,51.69
2019-05-22T00:08:37.963Z,52.09
2019-05-22T00:09:37.951Z,52.09
2019-05-22T00:10:37.963Z,52.19
2019-05-22T00:11:37.930Z,52.09
2019-05-22T00:12:46.584Z,52.09
2019-05-22T00:13:38.907Z,52.09
2019-05-22T00:14:37.897Z,52.09
2019-05-22T00:15:38.732Z,51.99
2019-05-22T00:16:37.897Z,52.19
2019-05-22T00:17:37.864Z,52.09
2019-05-22T00:18:37.852Z,52.09
2019-05-22T00:19:37.842Z,52.09
2019-05-22T00:20:37.830Z,51.99
2019-05-22T00:21:37.843Z,52.09
2019-05-22T00:22:37.811Z,51.99
2019-05-22T00:23:37.802Z,51.79
2019-05-22T00:24:37.785Z,51.99
2019-05-22T00:25:37.780Z,51.89
2019-05-22T00:26:37.785Z,52.09
2019-05-22T00:27:37.797Z,51.99
2019-05-22T00:28:37.740Z,51.79
2019-05-22T00:29:37.731Z,51.79
2019-05-22T00:30:37.719Z,51.99
2019-05-22T00:31:37.729Z,52.09
2019-05-22T00:32:37.696Z,51.79
2019-05-22T00:33:37.690Z,52.09
2019-05-22T00:34:37.674Z,51.89
2019-05-22T00:35:37.672Z,51.89
2019-05-22T00:36:37.676Z,51.69
2019-05-22T00:37:37.645Z,51.99
2019-05-22T00:38:37.629Z,52.09
2019-05-22T00:39:37.619Z,52.09
2019-05-22T00:40:37.611Z,51.99
2019-05-22T00:41:37.622Z,52.09
2019-05-22T00:42:37.588Z,52.09
2019-05-22T00:43:37.574Z,52.09
2019-05-22T00:44:37.581Z,51.79
2019-05-22T00:45:37.595Z,51.99
2019-05-22T00:46:37.563Z,52.09
2019-05-22T00:47:37.529Z,51.99
2019-05-22T00:48:37.520Z,51.79
2019-05-22T00:49:37.512Z,51.79
2019-05-22T00:50:37.499Z,52.09
2019-05-22T00:51:37.508Z,52.01
2019-05-22T00:52:37.474Z,51.99
2019-05-22T00:53:37.467Z,52.09
2019-05-22T00:54:37.452Z,52.09
2019-05-22T00:55:37.445Z,51.79
2019-05-22T00:56:37.453Z,51.69
2019-05-22T00:57:37.422Z,51.89
2019-05-22T00:58:37.407Z,51.89
2019-05-22T00:59:37.397Z,51.69
2019-05-22T01:00:37.388Z,51.62
2019-05-22T01:01:37.402Z,51.69
2019-05-22T01:02:37.367Z,51.72
2019-05-22T01:03:37.366Z,51.69
2019-05-22T01:04:37.343Z,51.49
2019-05-22T01:05:37.330Z,51.69
2019-05-22T01:06:37.344Z,51.79
2019-05-22T01:07:37.346Z,51.69
2019-05-22T01:08:37.297Z,51.51
2019-05-22T01:09:37.287Z,51.42
2019-05-22T01:10:37.278Z,51.89
2019-05-22T01:11:37.264Z,51.62
2019-05-22T01:12:37.274Z,51.62
2019-05-22T01:13:37.243Z,51.51
2019-05-22T01:14:43.014Z,51.42
2019-05-22T01:15:38.218Z,51.79
2019-05-22T01:16:37.219Z,51.72
2019-05-22T01:17:37.219Z,51.62
2019-05-22T01:18:37.187Z,51.42
2019-05-22T01:19:37.178Z,51.62
2019-05-22T01:20:37.165Z,51.62
2019-05-22T01:21:37.158Z,51.62
2019-05-22T01:22:37.164Z,51.72
2019-05-22T01:23:37.132Z,51.82
2019-05-22T01:24:37.122Z,51.72
2019-05-22T01:25:37.111Z,51.82
2019-05-22T01:26:37.098Z,51.62
2019-05-22T01:27:37.135Z,51.51
2019-05-22T01:28:37.076Z,51.72
2019-05-22T01:29:37.069Z,51.42
2019-05-22T01:30:37.057Z,51.62
2019-05-22T01:31:37.046Z,51.62
2019-05-22T01:32:37.055Z,51.62
2019-05-22T01:33:37.025Z,51.72
2019-05-22T01:34:37.011Z,51.72
2019-05-22T01:35:37.014Z,51.42
2019-05-22T01:36:36.990Z,51.51
2019-05-22T01:37:36.998Z,51.51
2019-05-22T01:38:36.966Z,51.92
2019-05-22T01:39:36.955Z,52.12
2019-05-22T01:40:36.945Z,52.01
2019-05-22T01:41:36.936Z,51.62
2019-05-22T01:42:36.943Z,51.92
2019-05-22T01:43:36.911Z,52.12
2019-05-22T01:44:36.915Z,52.22
2019-05-22T01:45:36.892Z,52.12
2019-05-22T01:46:36.882Z,51.51
2019-05-22T01:47:36.894Z,51.92
2019-05-22T01:48:36.869Z,52.12
2019-05-22T01:49:36.845Z,51.92
2019-05-22T01:50:36.838Z,52.01
2019-05-22T01:51:36.827Z,51.42
2019-05-22T01:52:36.833Z,51.92
2019-05-22T01:53:36.801Z,52.01
2019-05-22T01:54:36.793Z,51.62
2019-05-22T01:55:36.783Z,51.72
2019-05-22T01:56:36.768Z,51.62
2019-05-22T01:57:36.778Z,52.01
2019-05-22T01:58:36.781Z,52.01
2019-05-22T01:59:36.737Z,51.92
2019-05-22T02:00:36.731Z,52.12
2019-05-22T02:01:36.712Z,51.72
2019-05-22T02:02:36.702Z,51.42
2019-05-22T02:03:36.717Z,52.12
2019-05-22T02:04:36.679Z,51.51
2019-05-22T02:05:36.669Z,52.12
2019-05-22T02:06:36.663Z,52.12
2019-05-22T02:07:36.647Z,51.92
2019-05-22T02:08:36.658Z,52.01
2019-05-22T02:09:36.624Z,51.92
2019-05-22T02:10:36.625Z,51.82
2019-05-22T02:11:36.606Z,51.92
2019-05-22T02:12:36.591Z,51.82
2019-05-22T02:13:36.602Z,51.82
2019-05-22T02:14:36.570Z,51.82
2019-05-22T02:15:36.558Z,51.92
2019-05-22T02:16:36.550Z,51.82
2019-05-22T02:17:36.542Z,51.92
2019-05-22T02:18:36.546Z,51.82
2019-05-22T02:19:36.515Z,51.51
2019-05-22T02:20:36.507Z,51.72
2019-05-22T02:21:36.492Z,51.82
2019-05-22T02:22:36.485Z,51.82
2019-05-22T02:23:36.496Z,51.62
2019-05-22T02:24:36.459Z,51.92
2019-05-22T02:25:36.448Z,51.82
2019-05-22T02:26:36.442Z,51.82
2019-05-22T02:27:36.426Z,51.92
2019-05-22T02:28:36.436Z,51.62
2019-05-22T02:29:36.408Z,51.72
2019-05-22T02:30:36.398Z,51.82
2019-05-22T02:31:36.402Z,51.51
2019-05-22T02:32:36.377Z,51.72
2019-05-22T02:33:36.382Z,51.62
2019-05-22T02:34:36.352Z,51.92
2019-05-22T02:35:36.339Z,51.92
2019-05-22T02:36:36.338Z,51.82
2019-05-22T02:37:36.320Z,51.82
2019-05-22T02:38:36.331Z,51.92
2019-05-22T02:39:36.293Z,51.84
2019-05-22T02:40:36.285Z,51.94
2019-05-22T02:41:36.273Z,51.62
2019-05-22T02:42:36.262Z,51.82
2019-05-22T02:43:36.272Z,51.62
2019-05-22T02:44:36.274Z,51.64
2019-05-22T02:45:36.228Z,51.62
2019-05-22T02:46:36.216Z,51.72
2019-05-22T02:47:36.215Z,51.51
2019-05-22T02:48:36.198Z,51.84
2019-05-22T02:49:36.204Z,51.84
2019-05-22T02:50:36.173Z,51.92
2019-05-22T02:51:36.160Z,51.51
2019-05-22T02:52:36.155Z,51.72
2019-05-22T02:53:36.140Z,51.54
2019-05-22T02:54:36.157Z,51.84
2019-05-22T02:55:36.123Z,51.54
2019-05-22T02:56:36.109Z,51.54
2019-05-22T02:57:36.093Z,51.62
2019-05-22T02:58:36.083Z,51.51
2019-05-22T02:59:36.092Z,51.84
2019-05-22T03:00:36.066Z,51.84
2019-05-22T03:01:36.053Z,51.84
2019-05-22T03:02:36.039Z,51.84
2019-05-22T03:03:36.030Z,51.84
2019-05-22T03:04:36.037Z,51.84
2019-05-22T03:05:36.006Z,51.84
2019-05-22T03:06:35.995Z,51.84
2019-05-22T03:07:35.983Z,51.84
2019-05-22T03:08:35.971Z,51.84
2019-05-22T03:09:35.985Z,51.54
2019-05-22T03:10:35.949Z,51.84
2019-05-22T03:11:35.942Z,51.84
2019-05-22T03:12:35.934Z,51.64
2019-05-22T03:13:35.919Z,51.54
2019-05-22T03:14:35.935Z,51.54
2019-05-22T03:15:35.898Z,51.84
2019-05-22T03:16:35.887Z,51.84
2019-05-22T03:17:35.873Z,51.84
2019-05-22T03:18:35.865Z,51.84
2019-05-22T03:19:35.870Z,51.94
2019-05-22T03:20:35.855Z,51.84
2019-05-22T03:21:35.830Z,51.84
2019-05-22T03:22:35.816Z,51.94
2019-05-22T03:23:35.816Z,51.84
2019-05-22T03:24:35.817Z,51.94
2019-05-22T03:25:35.787Z,51.94
2019-05-22T03:26:35.775Z,51.84
2019-05-22T03:27:35.761Z,52.04
2019-05-22T03:28:35.751Z,51.94
2019-05-22T03:29:35.740Z,51.94
2019-05-22T03:30:35.752Z,51.84
2019-05-22T03:31:35.721Z,51.74
2019-05-22T03:32:42.641Z,52.04
2019-05-22T03:33:36.725Z,51.74
2019-05-22T03:34:35.690Z,51.94
2019-05-22T03:35:35.695Z,51.84
2019-05-22T03:36:35.664Z,51.84
2019-05-22T03:37:35.651Z,51.94
2019-05-22T03:38:35.638Z,52.04
2019-05-22T03:39:35.629Z,52.04
2019-05-22T03:40:35.639Z,51.94
2019-05-22T03:41:35.605Z,51.94
2019-05-22T03:42:35.599Z,51.74
2019-05-22T03:43:35.589Z,51.84
2019-05-22T03:44:35.574Z,51.94
2019-05-22T03:45:35.587Z,51.84
2019-05-22T03:46:35.560Z,51.84
2019-05-22T03:47:35.544Z,51.94
2019-05-22T03:48:35.530Z,51.74
2019-05-22T03:49:35.520Z,52.04
2019-05-22T03:50:35.540Z,51.84
2019-05-22T03:51:35.497Z,52.04
2019-05-22T03:52:35.484Z,51.84
2019-05-22T03:53:35.475Z,51.84
2019-05-22T03:54:35.471Z,51.34
2019-05-22T03:55:35.472Z,52.04
2019-05-22T03:56:35.449Z,52.04
2019-05-22T03:57:35.436Z,52.04
2019-05-22T03:58:35.425Z,51.84
2019-05-22T03:59:35.408Z,51.34
2019-05-22T04:00:35.425Z,51.94
2019-05-22T04:01:35.393Z,51.84
2019-05-22T04:02:35.376Z,51.34
2019-05-22T04:03:35.373Z,51.44
2019-05-22T04:04:35.363Z,51.34
2019-05-22T04:05:35.363Z,51.84
2019-05-22T04:06:35.331Z,51.24
2019-05-22T04:07:35.325Z,51.44
2019-05-22T04:08:35.313Z,51.84
2019-05-22T04:09:35.302Z,51.84
2019-05-22T04:10:35.325Z,51.84
2019-05-22T04:11:35.277Z,51.84
2019-05-22T04:12:35.269Z,52.04
2019-05-22T04:13:35.254Z,52.04
2019-05-22T04:14:35.244Z,51.94
2019-05-22T04:15:35.255Z,51.84
2019-05-22T04:16:35.230Z,51.84
2019-05-22T04:17:35.210Z,52.04
2019-05-22T04:18:35.202Z,51.74
2019-05-22T04:19:48.289Z,51.87
2019-05-22T04:20:36.203Z,51.84
2019-05-22T04:21:35.172Z,51.84
2019-05-22T04:22:35.158Z,51.94
2019-05-22T04:23:35.147Z,51.74
2019-05-22T04:24:35.131Z,51.94
2019-05-22T04:25:35.147Z,51.84
2019-05-22T04:26:35.139Z,52.07
2019-05-22T04:27:35.099Z,51.94
2019-05-22T04:28:35.089Z,51.94
2019-05-22T04:29:35.085Z,52.07
2019-05-22T04:30:35.065Z,51.34
2019-05-22T04:31:35.084Z,52.04
2019-05-22T04:32:35.110Z,51.64
2019-05-22T04:33:35.033Z,51.44
2019-05-22T04:34:35.021Z,51.34
2019-05-22T04:35:35.010Z,51.84
2019-05-22T04:36:35.022Z,51.94
2019-05-22T04:37:34.993Z,51.44
2019-05-22T04:38:34.977Z,51.54
2019-05-22T04:39:34.968Z,52.14
2019-05-22T04:40:34.958Z,51.84
2019-05-22T04:41:34.966Z,51.64
2019-05-22T04:42:34.935Z,51.64
2019-05-22T04:43:34.921Z,52.14
2019-05-22T04:44:34.916Z,51.74
2019-05-22T04:45:34.923Z,51.54
2019-05-22T04:46:34.896Z,51.64
2019-05-22T04:47:34.903Z,51.44
2019-05-22T04:48:34.868Z,51.74
2019-05-22T04:49:34.856Z,51.64
2019-05-22T04:50:34.853Z,51.62
2019-05-22T04:51:34.837Z,51.51
2019-05-22T04:52:34.844Z,51.54
2019-05-22T04:53:34.812Z,51.24
2019-05-22T04:54:34.800Z,51.14
2019-05-22T04:55:34.810Z,51.24
2019-05-22T04:56:34.782Z,51.24
2019-05-22T04:57:34.789Z,51.12
2019-05-22T04:58:34.760Z,51.12
2019-05-22T04:59:34.748Z,50.92
2019-05-22T05:00:34.738Z,51.14
2019-05-22T05:01:34.727Z,51.01
2019-05-22T05:02:34.737Z,51.21
2019-05-22T05:03:34.705Z,51.21
2019-05-22T05:04:34.692Z,51.12
2019-05-22T05:05:34.683Z,51.12
2019-05-22T05:06:34.669Z,51.42
2019-05-22T05:07:34.678Z,51.01
2019-05-22T05:08:34.652Z,50.92
2019-05-22T05:09:34.634Z,51.21
2019-05-22T05:10:34.651Z,51.21
2019-05-22T05:11:34.613Z,51.01
2019-05-22T05:12:34.626Z,51.01
2019-05-22T05:13:34.606Z,50.92
2019-05-22T05:14:34.579Z,51.01
2019-05-22T05:15:37.236Z,50.51
2019-05-22T05:16:34.557Z,50.71
2019-05-22T05:17:34.568Z,51.01
2019-05-22T05:18:34.537Z,50.92
2019-05-22T05:19:34.528Z,50.71
2019-05-22T05:20:34.513Z,51.01
2019-05-22T05:21:34.504Z,50.92
2019-05-22T05:22:34.517Z,51.01
2019-05-22T05:23:34.479Z,51.12
2019-05-22T05:24:34.558Z,50.51
2019-05-22T05:25:34.459Z,50.51
2019-05-22T05:26:34.456Z,50.92
2019-05-22T05:27:34.457Z,51.19
2019-05-22T05:28:34.432Z,51.19
2019-05-22T05:29:34.413Z,51.19
2019-05-22T05:30:34.403Z,50.39
2019-05-22T05:31:34.392Z,50.49
2019-05-22T05:32:34.409Z,50.29
2019-05-22T05:33:34.369Z,51.19
2019-05-22T05:34:34.358Z,50.69
2019-05-22T05:35:34.353Z,50.69
2019-05-22T05:36:34.340Z,50.59
2019-05-22T05:37:34.630Z,51.19
2019-05-22T05:38:34.362Z,50.49
2019-05-22T05:39:34.310Z,50.39
2019-05-22T05:40:34.347Z,50.39
2019-05-22T05:41:34.286Z,50.59
2019-05-22T05:42:34.270Z,50.67
2019-05-22T05:43:34.281Z,50.89
2019-05-22T05:44:34.249Z,50.96
2019-05-22T05:45:34.240Z,50.99
2019-05-22T05:46:34.233Z,51.07
2019-05-22T05:47:34.218Z,51.07
2019-05-22T05:48:34.224Z,50.76
2019-05-22T05:49:34.195Z,50.96
2019-05-22T05:50:39.761Z,50.67
2019-05-22T05:51:35.170Z,50.57
2019-05-22T05:52:34.160Z,51.57
2019-05-22T05:53:34.169Z,50.87
2019-05-22T05:54:34.136Z,51.67
2019-05-22T05:55:34.126Z,52.07
2019-05-22T05:56:34.114Z,51.94
2019-05-22T05:57:34.109Z,51.54
2019-05-22T05:58:34.123Z,51.77
2019-05-22T05:59:34.087Z,51.64
2019-05-22T06:00:34.069Z,51.84
2019-05-22T06:01:34.089Z,51.74
2019-05-22T06:02:34.051Z,51.54
2019-05-22T06:03:34.057Z,51.94
2019-05-22T06:04:35.460Z,51.84
2019-05-22T06:05:34.014Z,51.64
2019-05-22T06:06:34.005Z,51.25
2019-05-22T06:07:33.992Z,50.74
2019-05-22T06:08:34.001Z,49.34
2019-05-22T06:09:33.972Z,48.54
2019-05-22T06:10:33.966Z,49.74
2019-05-22T06:11:33.951Z,49.32
2019-05-22T06:12:33.939Z,48.54
2019-05-22T06:13:33.948Z,48.94
2019-05-22T06:14:33.915Z,48.94
2019-05-22T06:15:46.368Z,48.84
2019-05-22T06:16:34.890Z,48.54
2019-05-22T06:17:33.887Z,48.54
2019-05-22T06:18:33.894Z,48.14
2019-05-22T06:19:33.861Z,48.84
2019-05-22T06:20:33.851Z,48.74
2019-05-22T06:21:33.840Z,47.74
2019-05-22T06:22:33.828Z,48.14
2019-05-22T06:23:33.838Z,47.84
2019-05-22T06:24:33.802Z,48.04
2019-05-22T06:25:33.792Z,48.34
2019-05-22T06:26:33.784Z,47.84
2019-05-22T06:27:33.769Z,48.64
2019-05-22T06:28:33.793Z,48.44
2019-05-22T06:29:33.748Z,48.64
2019-05-22T06:30:33.735Z,48.64
2019-05-22T06:31:33.726Z,48.44
2019-05-22T06:32:33.735Z,48.74
2019-05-22T06:33:33.702Z,49.04
2019-05-22T06:34:33.714Z,49.24
2019-05-22T06:35:33.680Z,48.54
2019-05-22T06:36:33.673Z,48.72
2019-05-22T06:37:33.696Z,48.72
2019-05-22T06:38:33.648Z,49.22
2019-05-22T06:39:33.658Z,49.32
2019-05-22T06:40:33.629Z,49.22
2019-05-22T06:41:33.629Z,49.22
2019-05-22T06:42:33.604Z,48.82
2019-05-22T06:43:33.592Z,49.19
2019-05-22T06:44:33.605Z,49.32
2019-05-22T06:45:35.589Z,49.09
2019-05-22T06:46:33.559Z,49.22
2019-05-22T06:47:33.547Z,49.19
2019-05-22T06:48:33.540Z,48.99
2019-05-22T06:49:33.550Z,48.99
2019-05-22T06:50:33.518Z,48.49
2019-05-22T06:51:33.504Z,49.29
2019-05-22T06:52:33.495Z,49.59
2019-05-22T06:53:33.486Z,49.59
2019-05-22T06:54:33.497Z,49.40
2019-05-22T06:55:33.458Z,49.69
2019-05-22T06:56:33.452Z,49.40
2019-05-22T06:57:33.484Z,50.20
2019-05-22T06:58:33.437Z,50.09
2019-05-22T06:59:33.448Z,49.27
2019-05-22T07:00:33.407Z,49.27
2019-05-22T07:01:33.393Z,49.57
2019-05-22T07:02:33.382Z,49.67
2019-05-22T07:03:33.376Z,49.77
2019-05-22T07:04:33.433Z,49.67
2019-05-22T07:05:33.349Z,49.07
2019-05-22T07:06:33.346Z,49.27
2019-05-22T07:07:33.332Z,49.17
2019-05-22T07:08:33.315Z,49.57
2019-05-22T07:09:33.311Z,49.27
2019-05-22T07:10:33.317Z,49.97
2019-05-22T07:11:33.308Z,49.87
2019-05-22T07:12:33.271Z,49.07
2019-05-22T07:13:33.259Z,49.35
2019-05-22T07:14:33.247Z,49.74
2019-05-22T07:15:33.272Z,50.27
2019-05-22T07:16:33.233Z,50.15
2019-05-22T07:17:33.215Z,50.04
2019-05-22T07:18:33.208Z,49.35
2019-05-22T07:19:33.199Z,49.55
2019-05-22T07:20:33.205Z,49.05
2019-05-22T07:21:34.172Z,48.85
2019-05-22T07:22:33.159Z,48.75
2019-05-22T07:23:33.166Z,49.15
2019-05-22T07:24:33.138Z,49.44
2019-05-22T07:25:33.152Z,49.25
2019-05-22T07:26:33.115Z,49.52
2019-05-22T07:27:33.107Z,49.35
2019-05-22T07:28:33.097Z,48.45
2019-05-22T07:29:33.085Z,49.35
2019-05-22T07:30:33.092Z,49.55
2019-05-22T07:31:33.075Z,49.35
2019-05-22T07:32:33.049Z,49.52
2019-05-22T07:33:33.037Z,49.92
2019-05-22T07:34:33.037Z,50.12
2019-05-22T07:35:49.768Z,49.62
2019-05-22T07:36:34.011Z,49.22
2019-05-22T07:37:32.996Z,50.02
2019-05-22T07:38:33.056Z,50.12
2019-05-22T07:39:32.972Z,50.42
2019-05-22T07:40:32.999Z,50.32
2019-05-22T07:41:32.997Z,50.10
2019-05-22T07:42:32.942Z,50.60
2019-05-22T07:43:32.926Z,50.99
2019-05-22T07:44:32.917Z,50.99
2019-05-22T07:45:32.926Z,50.79
2019-05-22T07:46:32.898Z,50.60
2019-05-22T07:47:32.967Z,50.49
2019-05-22T07:48:32.872Z,50.40
2019-05-22T07:49:32.862Z,50.79
2019-05-22T07:50:32.874Z,50.70
2019-05-22T07:51:32.845Z,50.87
2019-05-22T07:52:32.832Z,50.77
2019-05-22T07:53:32.822Z,50.27
2019-05-22T07:54:32.806Z,50.47
2019-05-22T07:55:32.822Z,50.67
2019-05-22T07:56:32.793Z,51.27
2019-05-22T07:57:32.777Z,50.87
2019-05-22T07:58:32.761Z,50.57
2019-05-22T07:59:32.754Z,49.98
2019-05-22T08:00:32.763Z,49.87
2019-05-22T08:01:32.729Z,49.98
2019-05-22T08:02:32.730Z,49.98
2019-05-22T08:03:32.712Z,48.97
2019-05-22T08:04:32.707Z,49.38
2019-05-22T08:05:32.710Z,49.57
2019-05-22T08:06:32.695Z,48.97
2019-05-22T08:07:32.677Z,49.27
2019-05-22T08:08:32.651Z,48.97
2019-05-22T08:09:32.644Z,48.88
2019-05-22T08:10:32.633Z,48.97
2019-05-22T08:11:32.639Z,48.97
2019-05-22T08:12:32.610Z,48.68
2019-05-22T08:13:32.598Z,44.69
2019-05-22T08:14:32.589Z,46.73
2019-05-22T08:15:32.575Z,47.13
2019-05-22T08:16:32.585Z,46.43
2019-05-22T08:17:32.553Z,47.25
2019-05-22T08:18:32.607Z,47.45
2019-05-22T08:19:32.539Z,47.27
2019-05-22T08:20:32.553Z,46.59
2019-05-22T08:21:32.549Z,47.69
2019-05-22T08:22:32.507Z,47.02
2019-05-22T08:23:32.489Z,48.04
2019-05-22T08:24:32.479Z,49.26
2019-05-22T08:25:32.520Z,48.36
2019-05-22T08:26:32.474Z,48.89
2019-05-22T08:27:32.447Z,48.58
2019-05-22T08:28:32.433Z,49.08
2019-05-22T08:29:32.781Z,48.71
2019-05-22T08:30:32.410Z,48.11
2019-05-22T08:31:32.421Z,50.13
2019-05-22T08:32:32.447Z,50.54
2019-05-22T08:33:32.381Z,49.43
2019-05-22T08:34:32.369Z,49.46
2019-05-22T08:35:32.358Z,51.87
2019-05-22T08:36:32.370Z,49.76
2019-05-22T08:37:32.338Z,49.36
2019-05-22T08:38:32.323Z,48.55
2019-05-22T08:39:32.313Z,51.17
2019-05-22T08:40:32.303Z,50.76
2019-05-22T08:41:32.309Z,52.07
2019-05-22T08:42:35.336Z,51.97
2019-05-22T08:43:52.344Z,49.84
2019-05-22T08:44:33.252Z,49.63
2019-05-22T08:45:32.255Z,49.56
2019-05-22T08:46:32.263Z,49.66
2019-05-22T08:47:32.227Z,49.46
2019-05-22T08:48:32.211Z,49.86
2019-05-22T08:49:32.198Z,49.66
2019-05-22T08:50:32.768Z,48.68
2019-05-22T08:51:32.202Z,48.88
2019-05-22T08:52:32.165Z,48.68
2019-05-22T08:53:45.985Z,48.68
2019-05-22T08:54:33.142Z,49.18
2019-05-22T08:55:32.155Z,50.68
2019-05-22T08:56:32.123Z,49.60
2019-05-22T08:57:32.135Z,49.18
2019-05-22T08:58:32.102Z,49.18
2019-05-22T08:59:32.087Z,48.58
2019-05-22T09:00:32.078Z,49.08
2019-05-22T09:01:32.067Z,48.90
2019-05-22T09:02:32.075Z,49.01
2019-05-22T09:03:32.046Z,49.10
2019-05-22T09:04:32.034Z,48.80
2019-05-22T09:05:32.030Z,48.90
2019-05-22T09:06:32.010Z,49.10
2019-05-22T09:07:32.025Z,50.91
2019-05-22T09:08:31.995Z,50.91
2019-05-22T09:09:31.989Z,49.60
2019-05-22T09:10:31.985Z,49.01
2019-05-22T09:11:31.955Z,49.10
2019-05-22T09:12:31.965Z,48.90
2019-05-22T09:13:31.935Z,48.70
2019-05-22T09:14:31.955Z,47.80
2019-05-22T09:15:31.915Z,49.40
2019-05-22T09:16:31.923Z,48.10
2019-05-22T09:17:31.981Z,48.90
2019-05-22T09:18:31.878Z,49.51
2019-05-22T09:19:31.869Z,48.60
2019-05-22T09:20:48.039Z,49.51
2019-05-22T09:21:32.841Z,49.10
2019-05-22T09:22:40.593Z,49.88
2019-05-22T09:23:32.825Z,49.30
2019-05-22T09:24:31.811Z,48.98
2019-05-22T09:25:31.802Z,49.08
2019-05-22T09:26:31.787Z,48.98
2019-05-22T09:27:31.803Z,49.58
2019-05-22T09:28:31.765Z,49.28
2019-05-22T09:29:31.819Z,49.78
2019-05-22T09:30:31.750Z,49.38
2019-05-22T09:31:31.736Z,48.48
2019-05-22T09:32:31.742Z,49.08
2019-05-22T09:33:31.751Z,49.48
2019-05-22T09:34:31.705Z,52.19
2019-05-22T09:35:31.691Z,49.96
2019-05-22T09:36:31.678Z,50.86
2019-05-22T09:37:31.686Z,52.67
2019-05-22T09:38:31.705Z,52.34
2019-05-22T09:39:31.659Z,51.94
2019-05-22T09:40:31.640Z,51.12
2019-05-22T09:41:31.620Z,51.01
2019-05-22T09:42:31.656Z,50.69
2019-05-22T09:43:31.599Z,50.09
2019-05-22T09:44:31.589Z,48.57
2019-05-22T09:45:31.725Z,49.57
2019-05-22T09:46:31.583Z,48.94
2019-05-22T09:47:31.582Z,47.36
2019-05-22T09:48:31.564Z,48.76
2019-05-22T09:49:31.532Z,49.07
2019-05-22T09:50:31.524Z,49.46
2019-05-22T09:51:31.512Z,49.66
2019-05-22T09:52:31.532Z,48.16
2019-05-22T09:53:31.490Z,48.36
2019-05-22T09:54:31.476Z,49.26
2019-05-22T09:55:31.471Z,48.26
2019-05-22T09:56:31.456Z,49.69
2019-05-22T09:57:31.445Z,48.99
2019-05-22T09:58:31.456Z,47.49
2019-05-22T09:59:31.422Z,48.69
2019-05-22T10:00:31.410Z,48.58
2019-05-22T10:01:31.399Z,49.01
2019-05-22T10:02:31.387Z,51.01
2019-05-22T10:03:31.748Z,49.51
2019-05-22T10:04:31.365Z,50.92
2019-05-22T10:05:31.421Z,49.39
2019-05-22T10:06:31.348Z,47.50
2019-05-22T10:07:31.333Z,50.59
2019-05-22T10:08:31.343Z,48.79
2019-05-22T10:09:31.328Z,48.69
2019-05-22T10:10:31.299Z,49.81
2019-05-22T10:11:31.311Z,48.61
2019-05-22T10:12:31.285Z,49.31
2019-05-22T10:13:31.291Z,50.42
2019-05-22T10:14:31.259Z,50.51
2019-05-22T10:15:31.258Z,51.01
2019-05-22T10:16:31.234Z,49.11
2019-05-22T10:17:31.221Z,50.42
2019-05-22T10:18:31.236Z,48.51
2019-05-22T10:19:31.200Z,48.69
2019-05-22T10:20:31.195Z,48.11
2019-05-22T10:21:31.178Z,48.91
2019-05-22T10:22:31.170Z,49.11
2019-05-22T10:23:31.181Z,48.91
2019-05-22T10:24:31.147Z,50.42
2019-05-22T10:25:31.133Z,50.01
2019-05-22T10:26:31.126Z,50.71
2019-05-22T10:27:31.111Z,50.92
2019-05-22T10:28:31.123Z,51.19
2019-05-22T10:29:32.337Z,50.79
2019-05-22T10:30:31.109Z,50.69
2019-05-22T10:31:31.065Z,50.76
2019-05-22T10:32:32.351Z,50.14
2019-05-22T10:33:31.067Z,49.94
2019-05-22T10:34:31.034Z,49.34
2019-05-22T10:35:31.022Z,49.41
2019-05-22T10:36:31.013Z,49.49
2019-05-22T10:37:31.000Z,48.99
2019-05-22T10:38:31.028Z,45.29
2019-05-22T10:39:30.977Z,46.00
2019-05-22T10:40:30.970Z,44.54
2019-05-22T10:41:30.958Z,45.36
2019-05-22T10:42:30.946Z,45.16
2019-05-22T10:43:30.953Z,45.18
2019-05-22T10:44:30.924Z,45.30
2019-05-22T10:45:30.918Z,46.83
2019-05-22T10:46:30.899Z,45.75
2019-05-22T10:47:30.895Z,47.55
2019-05-22T10:48:30.898Z,47.88
2019-05-22T10:49:30.939Z,47.60
2019-05-22T10:50:30.859Z,47.82
2019-05-22T10:51:30.844Z,49.13
2019-05-22T10:52:30.832Z,50.23
2019-05-22T10:53:34.029Z,50.33
2019-05-22T10:54:30.812Z,50.43
2019-05-22T10:55:30.801Z,49.51
2019-05-22T10:56:30.830Z,49.68
2019-05-22T10:57:30.802Z,49.05
2019-05-22T10:58:30.770Z,49.23
2019-05-22T10:59:30.775Z,48.61
2019-05-22T11:00:30.745Z,48.08
2019-05-22T11:01:30.734Z,47.49
2019-05-22T11:02:30.721Z,47.66
2019-05-22T11:03:30.716Z,47.26
2019-05-22T11:04:30.743Z,47.84
2019-05-22T11:05:30.689Z,47.04
2019-05-22T11:06:30.678Z,47.72
2019-05-22T11:07:30.688Z,47.60
2019-05-22T11:08:34.320Z,47.79
2019-05-22T11:09:30.664Z,47.39
2019-05-22T11:10:30.634Z,46.89
2019-05-22T11:11:30.625Z,47.37
2019-05-22T11:12:30.614Z,47.37
2019-05-22T11:13:34.045Z,46.75
2019-05-22T11:14:30.609Z,47.25
2019-05-22T11:15:30.581Z,46.75
2019-05-22T11:16:30.566Z,46.35
2019-05-22T11:17:30.555Z,46.33
2019-05-22T11:18:30.545Z,46.33
2019-05-22T11:19:30.554Z,45.83
2019-05-22T11:20:30.567Z,46.53
2019-05-22T11:21:30.517Z,46.13
2019-05-22T11:22:30.505Z,46.11
2019-05-22T11:23:30.501Z,46.61
2019-05-22T11:24:30.527Z,45.83
2019-05-22T11:25:30.474Z,46.41
2019-05-22T11:26:30.454Z,46.20
2019-05-22T11:27:30.495Z,46.41
2019-05-22T11:28:30.435Z,46.11
2019-05-22T11:29:30.449Z,44.91
2019-05-22T11:30:30.414Z,45.21
2019-05-22T11:31:30.449Z,45.01
2019-05-22T11:32:30.403Z,45.09
2019-05-22T11:33:34.025Z,45.09
2019-05-22T11:34:30.535Z,45.39
2019-05-22T11:35:30.383Z,45.48
2019-05-22T11:36:30.344Z,44.49
2019-05-22T11:37:30.333Z,44.79
2019-05-22T11:38:30.326Z,44.49
2019-05-22T11:39:39.360Z,44.99
2019-05-22T11:40:31.302Z,44.59
2019-05-22T11:41:30.298Z,44.57
2019-05-22T11:42:30.278Z,44.69
2019-05-22T11:43:30.268Z,44.27
2019-05-22T11:44:30.277Z,44.96
2019-05-22T11:45:30.245Z,44.89
2019-05-22T11:46:30.240Z,45.17
2019-05-22T11:47:30.223Z,44.96
2019-05-22T11:48:30.211Z,44.27
2019-05-22T11:49:30.253Z,44.57
2019-05-22T11:50:30.190Z,44.76
2019-05-22T11:51:30.178Z,44.87
2019-05-22T11:52:30.170Z,45.06
2019-05-22T11:53:30.169Z,45.14
2019-05-22T11:54:30.145Z,45.04
2019-05-22T11:55:43.796Z,45.04
2019-05-22T11:56:31.122Z,44.74
2019-05-22T11:57:30.113Z,44.15
2019-05-22T11:58:30.155Z,44.54
2019-05-22T11:59:30.092Z,44.54
2019-05-22T12:00:30.100Z,44.15
2019-05-22T12:01:30.078Z,43.85
2019-05-22T12:02:30.059Z,43.75
2019-05-22T12:03:30.053Z,44.15
2019-05-22T12:04:46.667Z,43.93
2019-05-22T12:05:31.048Z,43.15
2019-05-22T12:06:30.047Z,43.82
2019-05-22T12:07:30.011Z,45.02
2019-05-22T12:08:30.001Z,44.54
2019-05-22T12:09:29.996Z,44.92
2019-05-22T12:10:29.990Z,45.24
2019-05-22T12:11:29.964Z,44.72
2019-05-22T12:12:30.020Z,44.23
2019-05-22T12:13:29.945Z,44.53
2019-05-22T12:14:29.930Z,43.82
2019-05-22T12:15:29.959Z,44.02
2019-05-22T12:16:30.034Z,44.12
2019-05-22T12:17:38.053Z,44.42
2019-05-22T12:18:30.880Z,44.15
2019-05-22T12:19:29.875Z,43.85
2019-05-22T12:20:29.881Z,42.93
2019-05-22T12:21:29.852Z,43.45
2019-05-22T12:22:29.838Z,42.93
2019-05-22T12:23:29.828Z,43.33
2019-05-22T12:24:36.525Z,43.05
2019-05-22T12:25:30.825Z,42.95
2019-05-22T12:26:29.795Z,43.15
2019-05-22T12:27:29.787Z,43.15
2019-05-22T12:28:29.783Z,42.75
2019-05-22T12:29:29.781Z,43.25
2019-05-22T12:30:29.793Z,43.75
2019-05-22T12:31:29.749Z,42.97
2019-05-22T12:32:29.759Z,42.37
2019-05-22T12:33:29.716Z,42.57
2019-05-22T12:34:29.711Z,42.67
2019-05-22T12:35:29.720Z,42.27
2019-05-22T12:36:29.687Z,43.27
2019-05-22T12:37:29.672Z,43.27
2019-05-22T12:38:29.665Z,42.18
2019-05-22T12:39:29.652Z,41.88
2019-05-22T12:40:29.665Z,42.47
2019-05-22T12:41:29.631Z,41.88
2019-05-22T12:42:29.622Z,42.47
2019-05-22T12:43:29.614Z,42.07
2019-05-22T12:44:29.602Z,43.27
2019-05-22T12:45:29.606Z,43.27
2019-05-22T12:46:29.574Z,42.77
2019-05-22T12:47:29.564Z,42.95
2019-05-22T12:48:29.554Z,42.15
2019-05-22T12:49:29.543Z,42.15
2019-05-22T12:50:29.563Z,42.95
2019-05-22T12:51:29.532Z,42.85
2019-05-22T12:52:29.517Z,42.75